sensor_id;sensor_type;location;lat;lon;timestamp;temperature;humidity
22838;DHT22;11585;51.450;-0.240;2023-04-15T00:01:57;10.30;99.90
22838;DHT22;11585;51.450;-0.240;2023-04-15T00:04:24;10.30;99.90
22838;DHT22;11585;51.450;-0.240;2023-04-15T00:06:53;10.30;99.90
22838;DHT22;11585;51.450;-0.240;2023-04-15T00:09:20;10.30;99.90
22838;DHT22;11585;51.450;-0.240;2023-04-15T00:11:46;10.20;99.90
22838;DHT22;11585;51.450;-0.240;2023-04-15T00:14:14;10.20;99.90
22838;DHT22;11585;51.450;-0.240;2023-04-15T00:16:40;10.20;99.90
22838;DHT22;11585;51.450;-0.240;2023-04-15T00:19:07;10.20;99.90
22838;DHT22;11585;51.450;-0.240;2023-04-15T00:21:35;10.20;99.90
22838;DHT22;11585;51.450;-0.240;2023-04-15T00:24:01;10.50;99.90
22838;DHT22;11585;51.450;-0.240;2023-04-15T00:26:29;10.20;99.90
22838;DHT22;11585;51.450;-0.240;2023-04-15T00:28:59;10.20;99.90
22838;DHT22;11585;51.450;-0.240;2023-04-15T00:31:27;10.20;99.90
22838;DHT22;11585;51.450;-0.240;2023-04-15T00:33:52;10.20;99.90
22838;DHT22;11585;51.450;-0.240;2023-04-15T00:36:24;10.20;99.90
22838;DHT22;11585;51.450;-0.240;2023-04-15T00:38:55;10.20;99.90
22838;DHT22;11585;51.450;-0.240;2023-04-15T00:41:24;10.20;99.90
22838;DHT22;11585;51.450;-0.240;2023-04-15T00:43:49;10.20;99.90
22838;DHT22;11585;51.450;-0.240;2023-04-15T00:46:16;10.20;99.90
22838;DHT22;11585;51.450;-0.240;2023-04-15T00:49:07;10.20;99.90
22838;DHT22;11585;51.450;-0.240;2023-04-15T00:51:33;10.20;99.90
22838;DHT22;11585;51.450;-0.240;2023-04-15T00:54:07;10.20;99.90
22838;DHT22;11585;51.450;-0.240;2023-04-15T00:56:37;10.10;99.90
22838;DHT22;11585;51.450;-0.240;2023-04-15T01:02:24;10.20;99.90
22838;DHT22;11585;51.450;-0.240;2023-04-15T01:04:53;10.10;99.90
22838;DHT22;11585;51.450;-0.240;2023-04-15T01:07:18;10.10;99.90
22838;DHT22;11585;51.450;-0.240;2023-04-15T01:09:44;10.10;99.90
22838;DHT22;11585;51.450;-0.240;2023-04-15T01:12:11;10.20;99.90
22838;DHT22;11585;51.450;-0.240;2023-04-15T01:14:38;9.60;99.90
22838;DHT22;11585;51.450;-0.240;2023-04-15T01:19:52;10.10;99.90
22838;DHT22;11585;51.450;-0.240;2023-04-15T01:22:19;10.10;99.90
22838;DHT22;11585;51.450;-0.240;2023-04-15T01:24:53;10.30;99.90
22838;DHT22;11585;51.450;-0.240;2023-04-15T01:27:41;10.40;99.90
22838;DHT22;11585;51.450;-0.240;2023-04-15T01:30:09;10.10;99.90
22838;DHT22;11585;51.450;-0.240;2023-04-15T01:32:36;10.10;99.90
22838;DHT22;11585;51.450;-0.240;2023-04-15T01:35:01;10.00;99.90
22838;DHT22;11585;51.450;-0.240;2023-04-15T01:40:33;10.10;99.90
22838;DHT22;11585;51.450;-0.240;2023-04-15T01:43:00;10.10;99.90
22838;DHT22;11585;51.450;-0.240;2023-04-15T01:45:27;10.10;99.90
22838;DHT22;11585;51.450;-0.240;2023-04-15T01:47:54;10.10;99.90
22838;DHT22;11585;51.450;-0.240;2023-04-15T01:50:22;10.10;99.90
22838;DHT22;11585;51.450;-0.240;2023-04-15T01:52:48;10.10;99.90
22838;DHT22;11585;51.450;-0.240;2023-04-15T01:55:13;10.00;99.90
22838;DHT22;11585;51.450;-0.240;2023-04-15T02:00:42;10.00;99.90
22838;DHT22;11585;51.450;-0.240;2023-04-15T02:03:08;10.00;99.90
22838;DHT22;11585;51.450;-0.240;2023-04-15T02:05:34;10.10;99.90
22838;DHT22;11585;51.450;-0.240;2023-04-15T02:08:01;10.10;99.90
22838;DHT22;11585;51.450;-0.240;2023-04-15T02:10:26;10.00;99.90
22838;DHT22;11585;51.450;-0.240;2023-04-15T02:12:52;10.10;99.90
22838;DHT22;11585;51.450;-0.240;2023-04-15T02:15:18;10.00;99.90
22838;DHT22;11585;51.450;-0.240;2023-04-15T02:17:45;10.00;99.90
22838;DHT22;11585;51.450;-0.240;2023-04-15T02:20:15;10.00;99.90
22838;DHT22;11585;51.450;-0.240;2023-04-15T02:22:42;10.00;99.90
22838;DHT22;11585;51.450;-0.240;2023-04-15T02:25:08;10.00;99.90
22838;DHT22;11585;51.450;-0.240;2023-04-15T02:27:35;10.00;99.90
22838;DHT22;11585;51.450;-0.240;2023-04-15T02:30:01;10.00;99.90
22838;DHT22;11585;51.450;-0.240;2023-04-15T02:32:26;10.00;99.90
22838;DHT22;11585;51.450;-0.240;2023-04-15T02:34:53;10.00;99.90
22838;DHT22;11585;51.450;-0.240;2023-04-15T02:37:19;10.00;99.90
22838;DHT22;11585;51.450;-0.240;2023-04-15T02:39:45;10.00;99.90
22838;DHT22;11585;51.450;-0.240;2023-04-15T02:42:11;9.90;99.90
22838;DHT22;11585;51.450;-0.240;2023-04-15T02:44:38;10.00;99.90
22838;DHT22;11585;51.450;-0.240;2023-04-15T02:50:25;9.90;99.90
22838;DHT22;11585;51.450;-0.240;2023-04-15T02:52:51;9.90;99.90
22838;DHT22;11585;51.450;-0.240;2023-04-15T02:55:17;9.90;99.90
22838;DHT22;11585;51.450;-0.240;2023-04-15T02:57:44;9.90;99.90
22838;DHT22;11585;51.450;-0.240;2023-04-15T03:00:10;9.90;99.90
22838;DHT22;11585;51.450;-0.240;2023-04-15T03:02:39;9.90;99.90
22838;DHT22;11585;51.450;-0.240;2023-04-15T03:05:09;9.90;99.90
22838;DHT22;11585;51.450;-0.240;2023-04-15T03:07:37;9.90;99.90
22838;DHT22;11585;51.450;-0.240;2023-04-15T03:10:02;9.90;99.90
22838;DHT22;11585;51.450;-0.240;2023-04-15T03:12:28;9.90;99.90
22838;DHT22;11585;51.450;-0.240;2023-04-15T03:14:54;9.90;99.90
22838;DHT22;11585;51.450;-0.240;2023-04-15T03:17:21;10.00;99.90
22838;DHT22;11585;51.450;-0.240;2023-04-15T03:19:47;9.90;99.90
22838;DHT22;11585;51.450;-0.240;2023-04-15T03:22:12;10.00;99.90
22838;DHT22;11585;51.450;-0.240;2023-04-15T03:24:38;9.90;99.90
22838;DHT22;11585;51.450;-0.240;2023-04-15T03:27:23;9.80;99.90
22838;DHT22;11585;51.450;-0.240;2023-04-15T03:29:48;9.80;99.90
22838;DHT22;11585;51.450;-0.240;2023-04-15T03:32:14;9.80;99.90
22838;DHT22;11585;51.450;-0.240;2023-04-15T03:34:43;9.80;99.90
22838;DHT22;11585;51.450;-0.240;2023-04-15T03:37:09;9.80;99.90
22838;DHT22;11585;51.450;-0.240;2023-04-15T03:39:34;9.80;99.90
22838;DHT22;11585;51.450;-0.240;2023-04-15T03:42:00;9.80;99.90
22838;DHT22;11585;51.450;-0.240;2023-04-15T03:44:26;9.80;99.90
22838;DHT22;11585;51.450;-0.240;2023-04-15T03:46:52;9.80;99.90
22838;DHT22;11585;51.450;-0.240;2023-04-15T03:49:37;9.80;99.90
22838;DHT22;11585;51.450;-0.240;2023-04-15T03:52:03;9.80;99.90
22838;DHT22;11585;51.450;-0.240;2023-04-15T03:54:28;9.80;99.90
22838;DHT22;11585;51.450;-0.240;2023-04-15T03:56:54;9.80;99.90
22838;DHT22;11585;51.450;-0.240;2023-04-15T03:59:20;9.80;99.90
22838;DHT22;11585;51.450;-0.240;2023-04-15T04:01:45;9.80;99.90
22838;DHT22;11585;51.450;-0.240;2023-04-15T04:04:11;9.80;99.90
22838;DHT22;11585;51.450;-0.240;2023-04-15T04:06:39;9.80;99.90
22838;DHT22;11585;51.450;-0.240;2023-04-15T04:09:24;9.80;99.90
22838;DHT22;11585;51.450;-0.240;2023-04-15T04:11:50;9.70;99.90
22838;DHT22;11585;51.450;-0.240;2023-04-15T04:14:15;9.70;99.90
22838;DHT22;11585;51.450;-0.240;2023-04-15T04:16:41;9.70;99.90
22838;DHT22;11585;51.450;-0.240;2023-04-15T04:19:10;9.70;99.90
22838;DHT22;11585;51.450;-0.240;2023-04-15T04:21:35;9.70;99.90
22838;DHT22;11585;51.450;-0.240;2023-04-15T04:24:01;9.70;99.90
22838;DHT22;11585;51.450;-0.240;2023-04-15T04:26:27;9.70;99.90
22838;DHT22;11585;51.450;-0.240;2023-04-15T04:29:12;9.70;99.90
22838;DHT22;11585;51.450;-0.240;2023-04-15T04:31:38;9.70;99.90
22838;DHT22;11585;51.450;-0.240;2023-04-15T04:34:03;9.70;99.90
22838;DHT22;11585;51.450;-0.240;2023-04-15T04:36:29;9.70;99.90
22838;DHT22;11585;51.450;-0.240;2023-04-15T04:38:56;9.70;99.90
22838;DHT22;11585;51.450;-0.240;2023-04-15T04:41:22;9.70;99.90
22838;DHT22;11585;51.450;-0.240;2023-04-15T04:43:47;9.70;99.90
22838;DHT22;11585;51.450;-0.240;2023-04-15T04:46:13;9.70;99.90
22838;DHT22;11585;51.450;-0.240;2023-04-15T04:48:59;9.80;99.90
22838;DHT22;11585;51.450;-0.240;2023-04-15T04:51:24;9.70;99.90
22838;DHT22;11585;51.450;-0.240;2023-04-15T04:53:50;9.70;99.90
22838;DHT22;11585;51.450;-0.240;2023-04-15T04:56:16;9.70;99.90
22838;DHT22;11585;51.450;-0.240;2023-04-15T05:01:29;9.70;99.90
22838;DHT22;11585;51.450;-0.240;2023-04-15T05:03:54;9.70;99.90
22838;DHT22;11585;51.450;-0.240;2023-04-15T05:06:20;9.70;99.90
22838;DHT22;11585;51.450;-0.240;2023-04-15T05:11:52;9.70;99.90
22838;DHT22;11585;51.450;-0.240;2023-04-15T05:14:18;9.70;99.90
22838;DHT22;11585;51.450;-0.240;2023-04-15T05:16:43;9.60;99.90
22838;DHT22;11585;51.450;-0.240;2023-04-15T05:19:28;9.70;99.90
22838;DHT22;11585;51.450;-0.240;2023-04-15T05:21:54;9.70;99.90
22838;DHT22;11585;51.450;-0.240;2023-04-15T05:24:19;9.70;99.90
22838;DHT22;11585;51.450;-0.240;2023-04-15T05:26:45;9.80;99.90
22838;DHT22;11585;51.450;-0.240;2023-04-15T05:29:12;9.70;99.90
22838;DHT22;11585;51.450;-0.240;2023-04-15T05:31:38;9.70;99.90
22838;DHT22;11585;51.450;-0.240;2023-04-15T05:34:03;9.70;99.90
22838;DHT22;11585;51.450;-0.240;2023-04-15T05:36:29;9.70;99.90
22838;DHT22;11585;51.450;-0.240;2023-04-15T05:38:57;9.70;99.90
22838;DHT22;11585;51.450;-0.240;2023-04-15T05:41:23;9.70;99.90
22838;DHT22;11585;51.450;-0.240;2023-04-15T05:43:48;9.70;99.90
22838;DHT22;11585;51.450;-0.240;2023-04-15T05:46:14;9.70;99.90
22838;DHT22;11585;51.450;-0.240;2023-04-15T05:52:02;9.70;99.90
22838;DHT22;11585;51.450;-0.240;2023-04-15T05:54:28;9.70;99.90
22838;DHT22;11585;51.450;-0.240;2023-04-15T05:56:53;9.60;99.90
22838;DHT22;11585;51.450;-0.240;2023-04-15T05:59:24;9.60;99.90
22838;DHT22;11585;51.450;-0.240;2023-04-15T06:01:50;9.70;99.90
22838;DHT22;11585;51.450;-0.240;2023-04-15T06:04:16;9.60;99.90
22838;DHT22;11585;51.450;-0.240;2023-04-15T06:06:42;9.80;99.90
22838;DHT22;11585;51.450;-0.240;2023-04-15T06:12:14;9.70;99.90
22838;DHT22;11585;51.450;-0.240;2023-04-15T06:14:40;9.70;99.90
22838;DHT22;11585;51.450;-0.240;2023-04-15T06:17:09;9.70;99.90
22838;DHT22;11585;51.450;-0.240;2023-04-15T06:19:35;9.70;99.90
22838;DHT22;11585;51.450;-0.240;2023-04-15T06:22:01;9.70;99.90
22838;DHT22;11585;51.450;-0.240;2023-04-15T06:24:27;9.70;99.90
22838;DHT22;11585;51.450;-0.240;2023-04-15T06:26:53;9.90;99.90
22838;DHT22;11585;51.450;-0.240;2023-04-15T06:32:08;9.70;99.90
22838;DHT22;11585;51.450;-0.240;2023-04-15T06:34:34;9.70;99.90
22838;DHT22;11585;51.450;-0.240;2023-04-15T06:37:00;9.70;99.90
22838;DHT22;11585;51.450;-0.240;2023-04-15T06:39:25;9.70;99.90
22838;DHT22;11585;51.450;-0.240;2023-04-15T06:41:51;9.70;99.90
22838;DHT22;11585;51.450;-0.240;2023-04-15T06:44:17;9.60;99.90
22838;DHT22;11585;51.450;-0.240;2023-04-15T06:46:43;9.70;99.90
22838;DHT22;11585;51.450;-0.240;2023-04-15T06:52:12;9.70;99.90
22838;DHT22;11585;51.450;-0.240;2023-04-15T06:54:38;9.70;99.90
22838;DHT22;11585;51.450;-0.240;2023-04-15T07:00:26;9.70;99.90
22838;DHT22;11585;51.450;-0.240;2023-04-15T07:02:53;9.70;99.90
22838;DHT22;11585;51.450;-0.240;2023-04-15T07:05:19;9.70;99.90
22838;DHT22;11585;51.450;-0.240;2023-04-15T07:08:04;9.70;99.90
22838;DHT22;11585;51.450;-0.240;2023-04-15T07:10:31;9.70;99.90
22838;DHT22;11585;51.450;-0.240;2023-04-15T07:12:57;9.80;99.90
22838;DHT22;11585;51.450;-0.240;2023-04-15T07:15:23;9.70;99.90
22838;DHT22;11585;51.450;-0.240;2023-04-15T07:20:53;9.70;99.90
22838;DHT22;11585;51.450;-0.240;2023-04-15T07:23:19;9.70;99.90
22838;DHT22;11585;51.450;-0.240;2023-04-15T07:25:45;9.70;99.90
22838;DHT22;11585;51.450;-0.240;2023-04-15T07:28:30;9.70;99.90
22838;DHT22;11585;51.450;-0.240;2023-04-15T07:30:56;9.70;99.90
22838;DHT22;11585;51.450;-0.240;2023-04-15T07:33:22;9.70;99.90
22838;DHT22;11585;51.450;-0.240;2023-04-15T07:35:48;9.70;99.90
22838;DHT22;11585;51.450;-0.240;2023-04-15T07:41:17;9.80;99.90
22838;DHT22;11585;51.450;-0.240;2023-04-15T07:43:43;9.80;99.90
22838;DHT22;11585;51.450;-0.240;2023-04-15T07:46:09;9.80;99.90
22838;DHT22;11585;51.450;-0.240;2023-04-15T07:48:35;9.80;99.90
22838;DHT22;11585;51.450;-0.240;2023-04-15T07:51:00;9.80;99.90
22838;DHT22;11585;51.450;-0.240;2023-04-15T07:53:27;9.80;99.90
22838;DHT22;11585;51.450;-0.240;2023-04-15T07:55:52;9.80;99.90
22838;DHT22;11585;51.450;-0.240;2023-04-15T07:58:37;9.80;99.90
22838;DHT22;11585;51.450;-0.240;2023-04-15T08:01:03;9.80;99.90
22838;DHT22;11585;51.450;-0.240;2023-04-15T08:03:29;9.80;99.90
22838;DHT22;11585;51.450;-0.240;2023-04-15T08:05:54;9.80;99.90
22838;DHT22;11585;51.450;-0.240;2023-04-15T08:08:39;9.80;99.90
22838;DHT22;11585;51.450;-0.240;2023-04-15T08:11:05;9.80;99.90
22838;DHT22;11585;51.450;-0.240;2023-04-15T08:13:30;9.80;99.90
22838;DHT22;11585;51.450;-0.240;2023-04-15T08:16:31;10.00;99.90
22838;DHT22;11585;51.450;-0.240;2023-04-15T08:25:40;9.90;99.90
22838;DHT22;11585;51.450;-0.240;2023-04-15T08:28:10;9.90;99.90
22838;DHT22;11585;51.450;-0.240;2023-04-15T08:30:36;9.90;99.90
22838;DHT22;11585;51.450;-0.240;2023-04-15T08:33:02;9.90;99.90
22838;DHT22;11585;51.450;-0.240;2023-04-15T08:35:27;9.90;99.90
22838;DHT22;11585;51.450;-0.240;2023-04-15T08:41:14;9.90;99.90
22838;DHT22;11585;51.450;-0.240;2023-04-15T08:43:57;9.90;99.90
22838;DHT22;11585;51.450;-0.240;2023-04-15T08:46:25;10.00;99.90
22838;DHT22;11585;51.450;-0.240;2023-04-15T08:48:56;9.90;99.90
22838;DHT22;11585;51.450;-0.240;2023-04-15T08:51:21;9.90;99.90
22838;DHT22;11585;51.450;-0.240;2023-04-15T08:53:48;9.90;99.90
22838;DHT22;11585;51.450;-0.240;2023-04-15T08:56:14;10.10;99.90
22838;DHT22;11585;51.450;-0.240;2023-04-15T08:59:04;10.00;99.90
22838;DHT22;11585;51.450;-0.240;2023-04-15T09:01:31;10.00;99.90
22838;DHT22;11585;51.450;-0.240;2023-04-15T09:03:58;10.00;99.90
22838;DHT22;11585;51.450;-0.240;2023-04-15T09:06:24;10.00;99.90
22838;DHT22;11585;51.450;-0.240;2023-04-15T09:08:51;10.00;99.90
22838;DHT22;11585;51.450;-0.240;2023-04-15T09:11:18;10.10;99.90
22838;DHT22;11585;51.450;-0.240;2023-04-15T09:13:44;10.00;99.90
22838;DHT22;11585;51.450;-0.240;2023-04-15T09:16:10;10.10;99.90
22838;DHT22;11585;51.450;-0.240;2023-04-15T09:18:38;10.10;99.90
22838;DHT22;11585;51.450;-0.240;2023-04-15T09:21:05;10.10;99.90
22838;DHT22;11585;51.450;-0.240;2023-04-15T09:23:33;10.10;99.90
22838;DHT22;11585;51.450;-0.240;2023-04-15T09:26:03;10.20;99.90
22838;DHT22;11585;51.450;-0.240;2023-04-15T09:28:30;10.10;99.90
22838;DHT22;11585;51.450;-0.240;2023-04-15T09:31:00;10.20;99.90
22838;DHT22;11585;51.450;-0.240;2023-04-15T09:33:27;10.10;99.90
22838;DHT22;11585;51.450;-0.240;2023-04-15T09:36:04;10.20;99.90
22838;DHT22;11585;51.450;-0.240;2023-04-15T09:45:14;10.20;99.90
22838;DHT22;11585;51.450;-0.240;2023-04-15T09:47:41;10.20;99.90
22838;DHT22;11585;51.450;-0.240;2023-04-15T09:50:07;10.20;99.90
22838;DHT22;11585;51.450;-0.240;2023-04-15T09:52:32;10.30;99.90
22838;DHT22;11585;51.450;-0.240;2023-04-15T09:54:59;10.90;99.90
22838;DHT22;11585;51.450;-0.240;2023-04-15T10:00:28;10.40;99.90
22838;DHT22;11585;51.450;-0.240;2023-04-15T10:02:55;10.40;99.90
22838;DHT22;11585;51.450;-0.240;2023-04-15T10:05:20;10.50;99.90
22838;DHT22;11585;51.450;-0.240;2023-04-15T10:07:48;10.40;99.90
22838;DHT22;11585;51.450;-0.240;2023-04-15T10:10:14;11.20;99.90
22838;DHT22;11585;51.450;-0.240;2023-04-15T10:12:41;10.50;99.90
22838;DHT22;11585;51.450;-0.240;2023-04-15T10:15:15;10.50;99.90
22838;DHT22;11585;51.450;-0.240;2023-04-15T10:17:47;10.60;99.90
22838;DHT22;11585;51.450;-0.240;2023-04-15T10:20:16;11.20;99.90
22838;DHT22;11585;51.450;-0.240;2023-04-15T10:22:44;10.50;99.90
22838;DHT22;11585;51.450;-0.240;2023-04-15T10:25:11;10.50;99.90
22838;DHT22;11585;51.450;-0.240;2023-04-15T10:27:58;10.50;99.90
22838;DHT22;11585;51.450;-0.240;2023-04-15T10:30:24;10.60;99.90
22838;DHT22;11585;51.450;-0.240;2023-04-15T10:32:51;10.60;99.90
22838;DHT22;11585;51.450;-0.240;2023-04-15T10:35:18;11.30;99.90
22838;DHT22;11585;51.450;-0.240;2023-04-15T10:37:46;10.60;99.90
22838;DHT22;11585;51.450;-0.240;2023-04-15T10:40:24;10.60;99.90
22838;DHT22;11585;51.450;-0.240;2023-04-15T10:42:53;10.60;99.90
22838;DHT22;11585;51.450;-0.240;2023-04-15T10:45:19;11.00;99.90
22838;DHT22;11585;51.450;-0.240;2023-04-15T10:47:51;10.60;99.90
22838;DHT22;11585;51.450;-0.240;2023-04-15T10:50:18;10.70;99.90
22838;DHT22;11585;51.450;-0.240;2023-04-15T10:52:43;10.70;99.90
22838;DHT22;11585;51.450;-0.240;2023-04-15T11:04:02;10.80;99.90
22838;DHT22;11585;51.450;-0.240;2023-04-15T11:06:43;10.80;99.90
22838;DHT22;11585;51.450;-0.240;2023-04-15T11:09:30;11.00;99.90
22838;DHT22;11585;51.450;-0.240;2023-04-15T11:12:07;11.00;99.90
22838;DHT22;11585;51.450;-0.240;2023-04-15T11:14:35;10.90;99.90
22838;DHT22;11585;51.450;-0.240;2023-04-15T11:17:03;10.90;99.90
22838;DHT22;11585;51.450;-0.240;2023-04-15T11:19:37;10.90;99.90
22838;DHT22;11585;51.450;-0.240;2023-04-15T11:22:10;10.90;99.90
22838;DHT22;11585;51.450;-0.240;2023-04-15T11:24:36;11.00;99.90
22838;DHT22;11585;51.450;-0.240;2023-04-15T11:27:01;11.00;99.90
22838;DHT22;11585;51.450;-0.240;2023-04-15T11:29:31;11.00;99.90
22838;DHT22;11585;51.450;-0.240;2023-04-15T11:32:08;11.00;99.90
22838;DHT22;11585;51.450;-0.240;2023-04-15T11:34:34;11.10;99.90
22838;DHT22;11585;51.450;-0.240;2023-04-15T11:37:27;11.10;99.90
22838;DHT22;11585;51.450;-0.240;2023-04-15T11:39:52;11.10;99.90
22838;DHT22;11585;51.450;-0.240;2023-04-15T11:42:18;11.10;99.90
22838;DHT22;11585;51.450;-0.240;2023-04-15T11:44:44;11.10;99.90
22838;DHT22;11585;51.450;-0.240;2023-04-15T11:47:29;11.10;99.90
22838;DHT22;11585;51.450;-0.240;2023-04-15T11:49:55;11.20;99.90
22838;DHT22;11585;51.450;-0.240;2023-04-15T11:52:20;11.20;99.90
22838;DHT22;11585;51.450;-0.240;2023-04-15T11:54:46;11.20;99.90
22838;DHT22;11585;51.450;-0.240;2023-04-15T11:57:12;11.30;99.90
22838;DHT22;11585;51.450;-0.240;2023-04-15T11:59:44;11.30;99.90
22838;DHT22;11585;51.450;-0.240;2023-04-15T12:02:12;11.40;99.90
22838;DHT22;11585;51.450;-0.240;2023-04-15T12:04:38;11.30;99.90
22838;DHT22;11585;51.450;-0.240;2023-04-15T12:09:54;11.40;99.90
22838;DHT22;11585;51.450;-0.240;2023-04-15T12:12:21;11.50;99.90
22838;DHT22;11585;51.450;-0.240;2023-04-15T12:14:46;11.50;99.90
22838;DHT22;11585;51.450;-0.240;2023-04-15T12:17:17;11.50;99.90
22838;DHT22;11585;51.450;-0.240;2023-04-15T12:19:43;11.60;99.90
22838;DHT22;11585;51.450;-0.240;2023-04-15T12:22:14;11.60;99.90
22838;DHT22;11585;51.450;-0.240;2023-04-15T12:24:41;11.70;99.90
22838;DHT22;11585;51.450;-0.240;2023-04-15T12:27:32;11.80;99.90
22838;DHT22;11585;51.450;-0.240;2023-04-15T12:30:06;11.70;99.90
22838;DHT22;11585;51.450;-0.240;2023-04-15T12:32:34;11.80;99.90
22838;DHT22;11585;51.450;-0.240;2023-04-15T12:35:00;11.80;99.90
22838;DHT22;11585;51.450;-0.240;2023-04-15T12:37:28;11.80;99.90
22838;DHT22;11585;51.450;-0.240;2023-04-15T12:39:54;11.90;99.90
22838;DHT22;11585;51.450;-0.240;2023-04-15T12:42:19;11.90;99.90
22838;DHT22;11585;51.450;-0.240;2023-04-15T12:44:46;12.00;99.90
22838;DHT22;11585;51.450;-0.240;2023-04-15T12:47:16;12.00;99.90
22838;DHT22;11585;51.450;-0.240;2023-04-15T12:49:42;12.00;99.90
22838;DHT22;11585;51.450;-0.240;2023-04-15T12:52:08;12.10;99.90
22838;DHT22;11585;51.450;-0.240;2023-04-15T12:54:33;12.10;99.90
22838;DHT22;11585;51.450;-0.240;2023-04-15T12:57:00;12.20;99.90
22838;DHT22;11585;51.450;-0.240;2023-04-15T12:59:27;12.10;99.90
22838;DHT22;11585;51.450;-0.240;2023-04-15T13:01:53;12.20;99.90
22838;DHT22;11585;51.450;-0.240;2023-04-15T13:04:19;12.30;99.90
22838;DHT22;11585;51.450;-0.240;2023-04-15T13:06:45;12.30;99.90
22838;DHT22;11585;51.450;-0.240;2023-04-15T13:09:12;12.30;99.90
22838;DHT22;11585;51.450;-0.240;2023-04-15T13:11:37;12.40;99.90
22838;DHT22;11585;51.450;-0.240;2023-04-15T13:14:05;12.40;99.90
22838;DHT22;11585;51.450;-0.240;2023-04-15T13:16:32;12.50;99.90
22838;DHT22;11585;51.450;-0.240;2023-04-15T13:19:01;12.50;99.90
22838;DHT22;11585;51.450;-0.240;2023-04-15T13:21:28;12.50;99.90
22838;DHT22;11585;51.450;-0.240;2023-04-15T13:23:54;12.50;99.90
22838;DHT22;11585;51.450;-0.240;2023-04-15T13:26:20;12.60;99.90
22838;DHT22;11585;51.450;-0.240;2023-04-15T13:28:47;12.60;99.90
22838;DHT22;11585;51.450;-0.240;2023-04-15T13:31:13;12.80;99.90
22838;DHT22;11585;51.450;-0.240;2023-04-15T13:33:39;12.80;99.90
22838;DHT22;11585;51.450;-0.240;2023-04-15T13:36:05;12.70;99.90
22838;DHT22;11585;51.450;-0.240;2023-04-15T13:38:33;12.70;99.90
22838;DHT22;11585;51.450;-0.240;2023-04-15T13:40:59;12.80;99.90
22838;DHT22;11585;51.450;-0.240;2023-04-15T13:43:24;12.90;99.90
22838;DHT22;11585;51.450;-0.240;2023-04-15T13:45:50;12.80;99.90
22838;DHT22;11585;51.450;-0.240;2023-04-15T13:51:38;12.90;99.90
22838;DHT22;11585;51.450;-0.240;2023-04-15T13:54:04;12.90;99.90
22838;DHT22;11585;51.450;-0.240;2023-04-15T13:56:30;12.90;99.90
22838;DHT22;11585;51.450;-0.240;2023-04-15T13:59:17;13.00;99.90
22838;DHT22;11585;51.450;-0.240;2023-04-15T14:01:42;13.00;99.90
22838;DHT22;11585;51.450;-0.240;2023-04-15T14:04:09;13.10;99.90
22838;DHT22;11585;51.450;-0.240;2023-04-15T14:06:34;13.10;99.90
22838;DHT22;11585;51.450;-0.240;2023-04-15T14:09:01;13.10;99.90
22838;DHT22;11585;51.450;-0.240;2023-04-15T14:11:27;13.20;99.90
22838;DHT22;11585;51.450;-0.240;2023-04-15T14:13:54;13.10;99.90
22838;DHT22;11585;51.450;-0.240;2023-04-15T14:16:19;13.20;99.90
22838;DHT22;11585;51.450;-0.240;2023-04-15T14:19:06;13.20;99.90
22838;DHT22;11585;51.450;-0.240;2023-04-15T14:21:32;13.20;99.90
22838;DHT22;11585;51.450;-0.240;2023-04-15T14:23:58;13.20;99.90
22838;DHT22;11585;51.450;-0.240;2023-04-15T14:26:23;13.20;99.90
22838;DHT22;11585;51.450;-0.240;2023-04-15T14:29:10;13.30;99.90
22838;DHT22;11585;51.450;-0.240;2023-04-15T14:31:36;13.30;99.90
22838;DHT22;11585;51.450;-0.240;2023-04-15T14:34:02;13.20;99.90
22838;DHT22;11585;51.450;-0.240;2023-04-15T14:36:28;13.30;99.90
22838;DHT22;11585;51.450;-0.240;2023-04-15T14:38:56;13.20;99.90
22838;DHT22;11585;51.450;-0.240;2023-04-15T14:41:21;13.30;99.90
22838;DHT22;11585;51.450;-0.240;2023-04-15T14:43:47;13.30;99.90
22838;DHT22;11585;51.450;-0.240;2023-04-15T14:46:13;13.30;99.90
22838;DHT22;11585;51.450;-0.240;2023-04-15T14:52:01;13.30;99.90
22838;DHT22;11585;51.450;-0.240;2023-04-15T15:00:37;13.40;99.90
22838;DHT22;11585;51.450;-0.240;2023-04-15T15:03:09;13.40;99.90
22838;DHT22;11585;51.450;-0.240;2023-04-15T15:05:44;13.40;99.90
22838;DHT22;11585;51.450;-0.240;2023-04-15T15:11:32;13.50;99.90
22838;DHT22;11585;51.450;-0.240;2023-04-15T15:13:58;13.60;99.90
22838;DHT22;11585;51.450;-0.240;2023-04-15T15:16:24;13.60;99.90
22838;DHT22;11585;51.450;-0.240;2023-04-15T15:22:12;13.60;99.90
22838;DHT22;11585;51.450;-0.240;2023-04-15T15:24:37;13.60;99.90
22838;DHT22;11585;51.450;-0.240;2023-04-15T15:27:03;13.60;99.90
22838;DHT22;11585;51.450;-0.240;2023-04-15T15:29:29;13.70;99.90
22838;DHT22;11585;51.450;-0.240;2023-04-15T15:31:54;13.70;99.90
22838;DHT22;11585;51.450;-0.240;2023-04-15T15:34:20;13.70;99.90
22838;DHT22;11585;51.450;-0.240;2023-04-15T15:36:45;13.70;99.90
22838;DHT22;11585;51.450;-0.240;2023-04-15T15:39:11;13.70;99.90
22838;DHT22;11585;51.450;-0.240;2023-04-15T15:41:37;13.80;99.90
22838;DHT22;11585;51.450;-0.240;2023-04-15T15:44:02;13.80;99.90
22838;DHT22;11585;51.450;-0.240;2023-04-15T15:46:28;13.80;99.90
22838;DHT22;11585;51.450;-0.240;2023-04-15T15:48:59;13.80;99.90
22838;DHT22;11585;51.450;-0.240;2023-04-15T15:51:26;13.90;99.90
22838;DHT22;11585;51.450;-0.240;2023-04-15T15:53:52;13.80;99.90
22838;DHT22;11585;51.450;-0.240;2023-04-15T15:56:17;13.90;99.90
22838;DHT22;11585;51.450;-0.240;2023-04-15T15:58:43;13.90;99.90
22838;DHT22;11585;51.450;-0.240;2023-04-15T16:01:09;14.00;99.90
22838;DHT22;11585;51.450;-0.240;2023-04-15T16:03:35;14.00;99.90
22838;DHT22;11585;51.450;-0.240;2023-04-15T16:06:02;14.00;99.90
22838;DHT22;11585;51.450;-0.240;2023-04-15T16:08:29;14.00;99.90
22838;DHT22;11585;51.450;-0.240;2023-04-15T16:10:55;14.00;99.90
22838;DHT22;11585;51.450;-0.240;2023-04-15T16:13:21;14.00;99.90
22838;DHT22;11585;51.450;-0.240;2023-04-15T16:15:47;14.10;99.90
22838;DHT22;11585;51.450;-0.240;2023-04-15T16:21:21;14.10;99.90
22838;DHT22;11585;51.450;-0.240;2023-04-15T16:23:50;14.10;99.90
22838;DHT22;11585;51.450;-0.240;2023-04-15T16:26:16;14.10;99.90
22838;DHT22;11585;51.450;-0.240;2023-04-15T16:28:45;14.00;99.90
22838;DHT22;11585;51.450;-0.240;2023-04-15T16:31:11;14.10;99.90
22838;DHT22;11585;51.450;-0.240;2023-04-15T16:33:37;14.00;99.90
22838;DHT22;11585;51.450;-0.240;2023-04-15T16:36:03;14.00;99.90
22838;DHT22;11585;51.450;-0.240;2023-04-15T16:38:49;14.00;99.90
22838;DHT22;11585;51.450;-0.240;2023-04-15T16:41:15;14.00;99.90
22838;DHT22;11585;51.450;-0.240;2023-04-15T16:43:41;14.00;99.90
22838;DHT22;11585;51.450;-0.240;2023-04-15T16:46:07;13.90;99.90
22838;DHT22;11585;51.450;-0.240;2023-04-15T16:48:33;14.10;99.90
22838;DHT22;11585;51.450;-0.240;2023-04-15T16:50:59;14.00;99.90
22838;DHT22;11585;51.450;-0.240;2023-04-15T16:53:25;14.00;99.90
22838;DHT22;11585;51.450;-0.240;2023-04-15T16:55:51;14.00;99.90
22838;DHT22;11585;51.450;-0.240;2023-04-15T16:58:18;14.00;99.90
22838;DHT22;11585;51.450;-0.240;2023-04-15T17:00:44;14.10;99.90
22838;DHT22;11585;51.450;-0.240;2023-04-15T17:03:10;14.00;99.90